sensor_id;sensor_type;location;lat;lon;timestamp;P1;durP1;ratioP1;P2;durP2;ratioP2
42118;SDS011;27783;42.782;23.274;2022-08-21T00:02:02;3.10;;;2.38;;
42118;SDS011;27783;42.782;23.274;2022-08-21T00:04:28;3.70;;;2.70;;
42118;SDS011;27783;42.782;23.274;2022-08-21T00:06:54;2.65;;;2.45;;
42118;SDS011;27783;42.782;23.274;2022-08-21T00:09:19;2.65;;;2.45;;
42118;SDS011;27783;42.782;23.274;2022-08-21T00:11:46;3.20;;;2.63;;
42118;SDS011;27783;42.782;23.274;2022-08-21T00:14:13;4.00;;;2.53;;
42118;SDS011;27783;42.782;23.274;2022-08-21T00:16:39;2.88;;;2.35;;
42118;SDS011;27783;42.782;23.274;2022-08-21T00:19:06;4.53;;;2.83;;
42118;SDS011;27783;42.782;23.274;2022-08-21T00:21:32;3.13;;;2.83;;
42118;SDS011;27783;42.782;23.274;2022-08-21T00:23:59;4.50;;;2.50;;
42118;SDS011;27783;42.782;23.274;2022-08-21T00:26:25;3.38;;;2.50;;
42118;SDS011;27783;42.782;23.274;2022-08-21T00:28:51;4.03;;;3.03;;
42118;SDS011;27783;42.782;23.274;2022-08-21T00:31:17;3.08;;;2.63;;
42118;SDS011;27783;42.782;23.274;2022-08-21T00:33:43;4.90;;;2.63;;
42118;SDS011;27783;42.782;23.274;2022-08-21T00:36:09;3.55;;;3.10;;
42118;SDS011;27783;42.782;23.274;2022-08-21T00:38:35;5.10;;;3.92;;
42118;SDS011;27783;42.782;23.274;2022-08-21T00:41:04;4.15;;;3.03;;
42118;SDS011;27783;42.782;23.274;2022-08-21T00:43:33;4.35;;;3.47;;
42118;SDS011;27783;42.782;23.274;2022-08-21T00:46:00;3.67;;;3.38;;
42118;SDS011;27783;42.782;23.274;2022-08-21T00:48:27;2.97;;;2.75;;
42118;SDS011;27783;42.782;23.274;2022-08-21T00:50:57;3.10;;;2.90;;
42118;SDS011;27783;42.782;23.274;2022-08-21T00:53:26;5.22;;;3.65;;
42118;SDS011;27783;42.782;23.274;2022-08-21T00:55:53;4.85;;;3.08;;
42118;SDS011;27783;42.782;23.274;2022-08-21T00:58:19;3.38;;;3.08;;
42118;SDS011;27783;42.782;23.274;2022-08-21T01:00:45;4.72;;;3.42;;
42118;SDS011;27783;42.782;23.274;2022-08-21T01:05:40;3.67;;;3.38;;
42118;SDS011;27783;42.782;23.274;2022-08-21T01:08:07;3.60;;;3.25;;
42118;SDS011;27783;42.782;23.274;2022-08-21T01:10:34;3.88;;;3.30;;
42118;SDS011;27783;42.782;23.274;2022-08-21T01:13:00;3.75;;;3.20;;
42118;SDS011;27783;42.782;23.274;2022-08-21T01:15:30;3.13;;;2.83;;
42118;SDS011;27783;42.782;23.274;2022-08-21T01:17:58;4.97;;;3.17;;
42118;SDS011;27783;42.782;23.274;2022-08-21T01:20:24;3.20;;;2.90;;
42118;SDS011;27783;42.782;23.274;2022-08-21T01:22:50;3.03;;;2.63;;
42118;SDS011;27783;42.782;23.274;2022-08-21T01:25:16;4.43;;;3.38;;
42118;SDS011;27783;42.782;23.274;2022-08-21T01:27:44;5.15;;;3.35;;
42118;SDS011;27783;42.782;23.274;2022-08-21T01:30:11;3.35;;;3.05;;
42118;SDS011;27783;42.782;23.274;2022-08-21T01:32:40;4.05;;;3.65;;
42118;SDS011;27783;42.782;23.274;2022-08-21T01:35:06;3.40;;;3.10;;
42118;SDS011;27783;42.782;23.274;2022-08-21T01:37:32;4.07;;;3.67;;
42118;SDS011;27783;42.782;23.274;2022-08-21T01:39:58;4.38;;;3.00;;
42118;SDS011;27783;42.782;23.274;2022-08-21T01:42:23;4.18;;;3.22;;
42118;SDS011;27783;42.782;23.274;2022-08-21T01:44:49;3.70;;;3.05;;
42118;SDS011;27783;42.782;23.274;2022-08-21T01:47:14;6.35;;;3.28;;
42118;SDS011;27783;42.782;23.274;2022-08-21T01:49:41;6.50;;;3.47;;
42118;SDS011;27783;42.782;23.274;2022-08-21T01:52:08;3.30;;;3.10;;
42118;SDS011;27783;42.782;23.274;2022-08-21T01:54:34;3.30;;;3.00;;
42118;SDS011;27783;42.782;23.274;2022-08-21T01:57:00;4.10;;;3.55;;
42118;SDS011;27783;42.782;23.274;2022-08-21T01:59:27;3.55;;;3.25;;
42118;SDS011;27783;42.782;23.274;2022-08-21T02:01:52;4.07;;;3.40;;
42118;SDS011;27783;42.782;23.274;2022-08-21T02:04:21;4.32;;;3.92;;
42118;SDS011;27783;42.782;23.274;2022-08-21T02:06:46;4.05;;;3.70;;
42118;SDS011;27783;42.782;23.274;2022-08-21T02:09:12;5.20;;;4.50;;
42118;SDS011;27783;42.782;23.274;2022-08-21T02:11:39;4.75;;;4.30;;
42118;SDS011;27783;42.782;23.274;2022-08-21T02:14:06;4.78;;;4.45;;
42118;SDS011;27783;42.782;23.274;2022-08-21T02:16:32;5.77;;;4.73;;
42118;SDS011;27783;42.782;23.274;2022-08-21T02:18:58;4.82;;;4.40;;
42118;SDS011;27783;42.782;23.274;2022-08-21T02:21:23;5.20;;;4.80;;
42118;SDS011;27783;42.782;23.274;2022-08-21T02:23:49;6.50;;;5.90;;
42118;SDS011;27783;42.782;23.274;2022-08-21T02:26:14;6.13;;;5.63;;
42118;SDS011;27783;42.782;23.274;2022-08-21T02:28:40;5.10;;;4.60;;
42118;SDS011;27783;42.782;23.274;2022-08-21T02:31:07;5.63;;;5.13;;
42118;SDS011;27783;42.782;23.274;2022-08-21T02:33:33;6.47;;;5.90;;
42118;SDS011;27783;42.782;23.274;2022-08-21T02:35:59;6.60;;;6.10;;
42118;SDS011;27783;42.782;23.274;2022-08-21T02:38:26;6.20;;;5.70;;
42118;SDS011;27783;42.782;23.274;2022-08-21T02:40:54;6.53;;;6.03;;
42118;SDS011;27783;42.782;23.274;2022-08-21T02:43:21;6.47;;;5.93;;
42118;SDS011;27783;42.782;23.274;2022-08-21T02:45:49;5.90;;;5.43;;
42118;SDS011;27783;42.782;23.274;2022-08-21T02:48:17;7.07;;;6.05;;
42118;SDS011;27783;42.782;23.274;2022-08-21T02:50:59;6.18;;;5.63;;
42118;SDS011;27783;42.782;23.274;2022-08-21T02:53:28;7.10;;;6.50;;
42118;SDS011;27783;42.782;23.274;2022-08-21T02:55:54;6.25;;;5.75;;
42118;SDS011;27783;42.782;23.274;2022-08-21T02:58:33;6.90;;;6.40;;
42118;SDS011;27783;42.782;23.274;2022-08-21T03:01:00;7.05;;;6.45;;
42118;SDS011;27783;42.782;23.274;2022-08-21T03:03:26;6.38;;;5.90;;
42118;SDS011;27783;42.782;23.274;2022-08-21T03:05:53;6.82;;;6.25;;
42118;SDS011;27783;42.782;23.274;2022-08-21T03:08:19;7.63;;;7.03;;
42118;SDS011;27783;42.782;23.274;2022-08-21T03:10:46;6.35;;;5.85;;
42118;SDS011;27783;42.782;23.274;2022-08-21T03:13:16;6.85;;;6.25;;
42118;SDS011;27783;42.782;23.274;2022-08-21T03:15:43;6.78;;;6.25;;
42118;SDS011;27783;42.782;23.274;2022-08-21T03:18:09;6.55;;;6.03;;
42118;SDS011;27783;42.782;23.274;2022-08-21T03:20:36;7.18;;;6.53;;
42118;SDS011;27783;42.782;23.274;2022-08-21T03:23:03;6.40;;;5.90;;
42118;SDS011;27783;42.782;23.274;2022-08-21T03:25:29;8.07;;;7.18;;
42118;SDS011;27783;42.782;23.274;2022-08-21T03:27:58;6.55;;;6.05;;
42118;SDS011;27783;42.782;23.274;2022-08-21T03:30:28;7.18;;;6.10;;
42118;SDS011;27783;42.782;23.274;2022-08-21T03:32:55;6.25;;;5.65;;
42118;SDS011;27783;42.782;23.274;2022-08-21T03:35:21;6.28;;;5.78;;
42118;SDS011;27783;42.782;23.274;2022-08-21T03:37:46;6.25;;;5.75;;
42118;SDS011;27783;42.782;23.274;2022-08-21T03:40:13;7.20;;;6.60;;
42118;SDS011;27783;42.782;23.274;2022-08-21T03:42:41;8.30;;;6.10;;
42118;SDS011;27783;42.782;23.274;2022-08-21T03:45:07;6.93;;;6.32;;
42118;SDS011;27783;42.782;23.274;2022-08-21T03:47:33;6.80;;;6.05;;
42118;SDS011;27783;42.782;23.274;2022-08-21T03:50:00;6.13;;;5.63;;
42118;SDS011;27783;42.782;23.274;2022-08-21T03:52:25;6.50;;;6.00;;
42118;SDS011;27783;42.782;23.274;2022-08-21T03:54:51;6.22;;;5.72;;
42118;SDS011;27783;42.782;23.274;2022-08-21T03:57:16;6.93;;;6.32;;
42118;SDS011;27783;42.782;23.274;2022-08-21T03:59:42;6.88;;;6.28;;
42118;SDS011;27783;42.782;23.274;2022-08-21T04:02:08;6.68;;;6.22;;
42118;SDS011;27783;42.782;23.274;2022-08-21T04:04:35;6.10;;;5.50;;
42118;SDS011;27783;42.782;23.274;2022-08-21T04:07:01;6.43;;;5.60;;
42118;SDS011;27783;42.782;23.274;2022-08-21T04:09:27;7.05;;;6.55;;
42118;SDS011;27783;42.782;23.274;2022-08-21T04:11:53;7.20;;;6.60;;
42118;SDS011;27783;42.782;23.274;2022-08-21T04:14:18;6.78;;;6.20;;
42118;SDS011;27783;42.782;23.274;2022-08-21T04:16:45;6.18;;;5.70;;
42118;SDS011;27783;42.782;23.274;2022-08-21T04:19:11;6.82;;;6.32;;
42118;SDS011;27783;42.782;23.274;2022-08-21T04:21:40;6.30;;;5.90;;
42118;SDS011;27783;42.782;23.274;2022-08-21T04:24:07;6.10;;;5.70;;
42118;SDS011;27783;42.782;23.274;2022-08-21T04:26:34;5.75;;;5.35;;
42118;SDS011;27783;42.782;23.274;2022-08-21T04:29:00;5.35;;;4.95;;
42118;SDS011;27783;42.782;23.274;2022-08-21T04:31:26;6.43;;;5.70;;
42118;SDS011;27783;42.782;23.274;2022-08-21T04:33:53;5.63;;;5.23;;
42118;SDS011;27783;42.782;23.274;2022-08-21T04:36:19;6.10;;;5.70;;
42118;SDS011;27783;42.782;23.274;2022-08-21T04:38:44;6.03;;;5.53;;
42118;SDS011;27783;42.782;23.274;2022-08-21T04:41:09;6.28;;;5.78;;
42118;SDS011;27783;42.782;23.274;2022-08-21T04:43:35;5.60;;;5.20;;
42118;SDS011;27783;42.782;23.274;2022-08-21T04:46:01;5.75;;;5.35;;
42118;SDS011;27783;42.782;23.274;2022-08-21T04:48:26;6.45;;;5.45;;
42118;SDS011;27783;42.782;23.274;2022-08-21T04:53:39;5.93;;;5.47;;
42118;SDS011;27783;42.782;23.274;2022-08-21T04:56:08;5.72;;;5.32;;
42118;SDS011;27783;42.782;23.274;2022-08-21T04:58:38;6.35;;;5.85;;
42118;SDS011;27783;42.782;23.274;2022-08-21T05:01:04;5.97;;;5.38;;
42118;SDS011;27783;42.782;23.274;2022-08-21T05:03:33;5.93;;;5.40;;
42118;SDS011;27783;42.782;23.274;2022-08-21T05:06:02;6.10;;;5.60;;
42118;SDS011;27783;42.782;23.274;2022-08-21T05:08:30;5.53;;;5.13;;
42118;SDS011;27783;42.782;23.274;2022-08-21T05:10:56;7.43;;;5.03;;
42118;SDS011;27783;42.782;23.274;2022-08-21T05:13:21;5.63;;;5.22;;
42118;SDS011;27783;42.782;23.274;2022-08-21T05:15:47;4.90;;;4.57;;
42118;SDS011;27783;42.782;23.274;2022-08-21T05:18:12;23.48;;;12.93;;
42118;SDS011;27783;42.782;23.274;2022-08-21T05:20:38;23.15;;;9.85;;
42118;SDS011;27783;42.782;23.274;2022-08-21T05:23:08;17.20;;;8.20;;
42118;SDS011;27783;42.782;23.274;2022-08-21T05:25:34;11.95;;;7.43;;
42118;SDS011;27783;42.782;23.274;2022-08-21T05:28:00;10.98;;;6.63;;
42118;SDS011;27783;42.782;23.274;2022-08-21T05:30:25;14.68;;;6.68;;
42118;SDS011;27783;42.782;23.274;2022-08-21T05:32:55;11.63;;;7.03;;
42118;SDS011;27783;42.782;23.274;2022-08-21T05:35:22;16.52;;;6.97;;
42118;SDS011;27783;42.782;23.274;2022-08-21T05:37:47;12.07;;;6.93;;
42118;SDS011;27783;42.782;23.274;2022-08-21T05:40:13;16.38;;;8.63;;
42118;SDS011;27783;42.782;23.274;2022-08-21T05:42:39;13.93;;;7.78;;
42118;SDS011;27783;42.782;23.274;2022-08-21T05:45:04;13.75;;;7.80;;
42118;SDS011;27783;42.782;23.274;2022-08-21T05:47:30;13.13;;;7.90;;
42118;SDS011;27783;42.782;23.274;2022-08-21T05:49:55;14.02;;;8.35;;
42118;SDS011;27783;42.782;23.274;2022-08-21T05:52:21;16.98;;;8.23;;
42118;SDS011;27783;42.782;23.274;2022-08-21T05:54:47;15.30;;;7.85;;
42118;SDS011;27783;42.782;23.274;2022-08-21T05:57:12;18.23;;;7.70;;
42118;SDS011;27783;42.782;23.274;2022-08-21T05:59:38;14.90;;;8.20;;
42118;SDS011;27783;42.782;23.274;2022-08-21T06:02:03;13.18;;;6.82;;
42118;SDS011;27783;42.782;23.274;2022-08-21T06:04:29;17.75;;;7.35;;
42118;SDS011;27783;42.782;23.274;2022-08-21T06:06:55;8.13;;;6.93;;
42118;SDS011;27783;42.782;23.274;2022-08-21T06:09:20;13.70;;;6.70;;
42118;SDS011;27783;42.782;23.274;2022-08-21T06:11:46;14.25;;;7.20;;
42118;SDS011;27783;42.782;23.274;2022-08-21T06:14:13;12.00;;;6.60;;
42118;SDS011;27783;42.782;23.274;2022-08-21T06:16:39;14.35;;;7.65;;
42118;SDS011;27783;42.782;23.274;2022-08-21T06:19:05;10.85;;;5.82;;
42118;SDS011;27783;42.782;23.274;2022-08-21T06:21:30;11.82;;;7.13;;
42118;SDS011;27783;42.782;23.274;2022-08-21T06:23:56;11.68;;;7.05;;
42118;SDS011;27783;42.782;23.274;2022-08-21T06:26:21;8.82;;;5.85;;
42118;SDS011;27783;42.782;23.274;2022-08-21T06:28:47;10.55;;;6.78;;
42118;SDS011;27783;42.782;23.274;2022-08-21T06:31:14;10.60;;;9.48;;
42118;SDS011;27783;42.782;23.274;2022-08-21T06:33:42;18.42;;;10.85;;
42118;SDS011;27783;42.782;23.274;2022-08-21T06:36:07;14.38;;;9.45;;
42118;SDS011;27783;42.782;23.274;2022-08-21T06:38:32;10.93;;;8.80;;
42118;SDS011;27783;42.782;23.274;2022-08-21T06:40:58;13.85;;;11.38;;
42118;SDS011;27783;42.782;23.274;2022-08-21T06:43:24;9.45;;;8.30;;
42118;SDS011;27783;42.782;23.274;2022-08-21T06:45:49;15.00;;;9.32;;
42118;SDS011;27783;42.782;23.274;2022-08-21T06:48:16;11.68;;;7.90;;
42118;SDS011;27783;42.782;23.274;2022-08-21T06:50:41;9.55;;;7.80;;
42118;SDS011;27783;42.782;23.274;2022-08-21T06:53:10;11.57;;;10.35;;
42118;SDS011;27783;42.782;23.274;2022-08-21T06:55:36;10.80;;;8.68;;
42118;SDS011;27783;42.782;23.274;2022-08-21T06:58:03;10.05;;;8.82;;
42118;SDS011;27783;42.782;23.274;2022-08-21T07:00:30;9.25;;;8.32;;
42118;SDS011;27783;42.782;23.274;2022-08-21T07:02:56;10.18;;;8.88;;
42118;SDS011;27783;42.782;23.274;2022-08-21T07:05:24;10.82;;;8.52;;
42118;SDS011;27783;42.782;23.274;2022-08-21T07:07:51;12.32;;;8.63;;
42118;SDS011;27783;42.782;23.274;2022-08-21T07:10:16;10.10;;;8.18;;
42118;SDS011;27783;42.782;23.274;2022-08-21T07:12:42;9.63;;;7.88;;
42118;SDS011;27783;42.782;23.274;2022-08-21T07:15:07;9.32;;;8.05;;
42118;SDS011;27783;42.782;23.274;2022-08-21T07:17:33;10.85;;;8.55;;
42118;SDS011;27783;42.782;23.274;2022-08-21T07:19:58;13.10;;;9.02;;
42118;SDS011;27783;42.782;23.274;2022-08-21T07:22:24;10.55;;;8.57;;
42118;SDS011;27783;42.782;23.274;2022-08-21T07:24:50;9.30;;;8.05;;
42118;SDS011;27783;42.782;23.274;2022-08-21T07:27:15;10.13;;;7.75;;
42118;SDS011;27783;42.782;23.274;2022-08-21T07:29:41;13.90;;;10.13;;
42118;SDS011;27783;42.782;23.274;2022-08-21T07:32:06;15.68;;;10.98;;
42118;SDS011;27783;42.782;23.274;2022-08-21T07:34:32;15.55;;;11.60;;
42118;SDS011;27783;42.782;23.274;2022-08-21T07:36:57;13.30;;;12.07;;
42118;SDS011;27783;42.782;23.274;2022-08-21T07:39:23;14.32;;;12.85;;
42118;SDS011;27783;42.782;23.274;2022-08-21T07:41:49;14.15;;;12.73;;
42118;SDS011;27783;42.782;23.274;2022-08-21T07:44:15;14.13;;;11.85;;
42118;SDS011;27783;42.782;23.274;2022-08-21T07:46:40;14.63;;;10.75;;
42118;SDS011;27783;42.782;23.274;2022-08-21T07:49:05;12.20;;;10.40;;
42118;SDS011;27783;42.782;23.274;2022-08-21T07:51:31;11.85;;;10.02;;
42118;SDS011;27783;42.782;23.274;2022-08-21T07:53:58;9.90;;;9.10;;
42118;SDS011;27783;42.782;23.274;2022-08-21T07:56:25;9.40;;;8.63;;
42118;SDS011;27783;42.782;23.274;2022-08-21T07:58:51;8.88;;;8.18;;
42118;SDS011;27783;42.782;23.274;2022-08-21T08:01:17;9.05;;;8.18;;
42118;SDS011;27783;42.782;23.274;2022-08-21T08:03:43;10.57;;;9.00;;
42118;SDS011;27783;42.782;23.274;2022-08-21T08:06:08;10.43;;;8.75;;
42118;SDS011;27783;42.782;23.274;2022-08-21T08:08:37;9.10;;;8.18;;
42118;SDS011;27783;42.782;23.274;2022-08-21T08:11:04;8.32;;;7.50;;
42118;SDS011;27783;42.782;23.274;2022-08-21T08:13:29;9.02;;;8.27;;
42118;SDS011;27783;42.782;23.274;2022-08-21T08:15:55;9.95;;;8.95;;
42118;SDS011;27783;42.782;23.274;2022-08-21T08:18:21;10.75;;;8.60;;
42118;SDS011;27783;42.782;23.274;2022-08-21T08:20:46;9.05;;;8.20;;
42118;SDS011;27783;42.782;23.274;2022-08-21T08:23:12;9.55;;;8.63;;
42118;SDS011;27783;42.782;23.274;2022-08-21T08:25:39;14.05;;;9.63;;
42118;SDS011;27783;42.782;23.274;2022-08-21T08:28:06;9.23;;;8.27;;
42118;SDS011;27783;42.782;23.274;2022-08-21T08:30:31;11.10;;;7.60;;
42118;SDS011;27783;42.782;23.274;2022-08-21T08:32:57;11.63;;;7.55;;
42118;SDS011;27783;42.782;23.274;2022-08-21T08:35:24;10.40;;;8.27;;
42118;SDS011;27783;42.782;23.274;2022-08-21T08:37:50;9.90;;;9.00;;
42118;SDS011;27783;42.782;23.274;2022-08-21T08:40:25;15.27;;;9.73;;
42118;SDS011;27783;42.782;23.274;2022-08-21T08:42:54;11.55;;;9.95;;
42118;SDS011;27783;42.782;23.274;2022-08-21T08:45:20;10.07;;;9.07;;
42118;SDS011;27783;42.782;23.274;2022-08-21T08:47:50;10.48;;;8.90;;
42118;SDS011;27783;42.782;23.274;2022-08-21T08:55:40;11.25;;;9.25;;
42118;SDS011;27783;42.782;23.274;2022-08-21T08:58:19;11.30;;;7.70;;
42118;SDS011;27783;42.782;23.274;2022-08-21T09:00:49;11.43;;;8.23;;
42118;SDS011;27783;42.782;23.274;2022-08-21T09:03:16;9.65;;;8.70;;
42118;SDS011;27783;42.782;23.274;2022-08-21T09:13:41;8.93;;;8.10;;
42118;SDS011;27783;42.782;23.274;2022-08-21T09:21:20;10.98;;;8.55;;
42118;SDS011;27783;42.782;23.274;2022-08-21T09:27:29;10.88;;;8.40;;
42118;SDS011;27783;42.782;23.274;2022-08-21T09:29:39;12.68;;;9.27;;
42118;SDS011;27783;42.782;23.274;2022-08-21T09:32:10;19.55;;;9.13;;
42118;SDS011;27783;42.782;23.274;2022-08-21T09:34:59;13.57;;;8.23;;
42118;SDS011;27783;42.782;23.274;2022-08-21T09:37:30;15.23;;;7.63;;
42118;SDS011;27783;42.782;23.274;2022-08-21T09:39:57;11.45;;;7.43;;
42118;SDS011;27783;42.782;23.274;2022-08-21T09:42:25;12.98;;;6.95;;
42118;SDS011;27783;42.782;23.274;2022-08-21T09:47:43;11.10;;;8.00;;
42118;SDS011;27783;42.782;23.274;2022-08-21T09:50:15;8.15;;;7.45;;
42118;SDS011;27783;42.782;23.274;2022-08-21T09:52:51;8.93;;;7.38;;
42118;SDS011;27783;42.782;23.274;2022-08-21T09:55:39;9.20;;;6.13;;
42118;SDS011;27783;42.782;23.274;2022-08-21T09:58:33;8.00;;;7.22;;
42118;SDS011;27783;42.782;23.274;2022-08-21T10:01:01;6.38;;;5.78;;
42118;SDS011;27783;42.782;23.274;2022-08-21T10:03:29;7.53;;;5.78;;
42118;SDS011;27783;42.782;23.274;2022-08-21T10:05:57;5.95;;;5.43;;
42118;SDS011;27783;42.782;23.274;2022-08-21T10:08:26;6.72;;;6.00;;
42118;SDS011;27783;42.782;23.274;2022-08-21T10:10:56;17.90;;;7.13;;
42118;SDS011;27783;42.782;23.274;2022-08-21T10:13:37;11.35;;;7.68;;
42118;SDS011;27783;42.782;23.274;2022-08-21T10:22:00;6.88;;;6.30;;
42118;SDS011;27783;42.782;23.274;2022-08-21T10:30:17;9.18;;;5.97;;
42118;SDS011;27783;42.782;23.274;2022-08-21T10:35:33;6.15;;;5.55;;
42118;SDS011;27783;42.782;23.274;2022-08-21T10:49:59;5.88;;;4.82;;
42118;SDS011;27783;42.782;23.274;2022-08-21T10:55:33;6.03;;;5.43;;
42118;SDS011;27783;42.782;23.274;2022-08-21T10:58:14;5.43;;;4.32;;
42118;SDS011;27783;42.782;23.274;2022-08-21T11:03:44;6.45;;;4.78;;
42118;SDS011;27783;42.782;23.274;2022-08-21T11:06:16;7.63;;;4.93;;
42118;SDS011;27783;42.782;23.274;2022-08-21T11:09:15;6.57;;;4.40;;
42118;SDS011;27783;42.782;23.274;2022-08-21T11:11:57;5.40;;;4.50;;
42118;SDS011;27783;42.782;23.274;2022-08-21T11:17:36;4.93;;;4.45;;
42118;SDS011;27783;42.782;23.274;2022-08-21T11:20:23;9.90;;;4.95;;
42118;SDS011;27783;42.782;23.274;2022-08-21T11:23:16;4.90;;;4.50;;
42118;SDS011;27783;42.782;23.274;2022-08-21T11:25:49;6.80;;;3.60;;
42118;SDS011;27783;42.782;23.274;2022-08-21T11:28:45;5.60;;;4.70;;
42118;SDS011;27783;42.782;23.274;2022-08-21T11:34:05;6.53;;;3.78;;
42118;SDS011;27783;42.782;23.274;2022-08-21T11:45:33;7.68;;;4.60;;
42118;SDS011;27783;42.782;23.274;2022-08-21T11:51:15;10.93;;;5.22;;
42118;SDS011;27783;42.782;23.274;2022-08-21T11:56:27;10.55;;;5.75;;
42118;SDS011;27783;42.782;23.274;2022-08-21T11:59:17;13.93;;;5.55;;
42118;SDS011;27783;42.782;23.274;2022-08-21T12:01:50;11.90;;;5.70;;
42118;SDS011;27783;42.782;23.274;2022-08-21T12:06:54;9.02;;;4.85;;
42118;SDS011;27783;42.782;23.274;2022-08-21T12:09:34;8.07;;;5.18;;
42118;SDS011;27783;42.782;23.274;2022-08-21T12:12:26;5.97;;;4.47;;
42118;SDS011;27783;42.782;23.274;2022-08-21T12:15:11;7.03;;;4.25;;
42118;SDS011;27783;42.782;23.274;2022-08-21T12:17:55;6.20;;;4.30;;
42118;SDS011;27783;42.782;23.274;2022-08-21T12:20:26;20.75;;;5.60;;
42118;SDS011;27783;42.782;23.274;2022-08-21T12:22:54;14.02;;;5.50;;
42118;SDS011;27783;42.782;23.274;2022-08-21T12:25:35;9.70;;;4.82;;
42118;SDS011;27783;42.782;23.274;2022-08-21T12:28:26;8.75;;;5.10;;
42118;SDS011;27783;42.782;23.274;2022-08-21T12:30:56;21.88;;;5.90;;
42118;SDS011;27783;42.782;23.274;2022-08-21T12:33:26;14.23;;;5.22;;
42118;SDS011;27783;42.782;23.274;2022-08-21T12:36:06;11.95;;;5.72;;
42118;SDS011;27783;42.782;23.274;2022-08-21T12:38:47;14.85;;;5.13;;
42118;SDS011;27783;42.782;23.274;2022-08-21T12:41:44;9.10;;;4.90;;
42118;SDS011;27783;42.782;23.274;2022-08-21T12:44:16;7.80;;;4.80;;
42118;SDS011;27783;42.782;23.274;2022-08-21T12:49:32;5.00;;;4.55;;
42118;SDS011;27783;42.782;23.274;2022-08-21T12:55:25;5.30;;;4.73;;
42118;SDS011;27783;42.782;23.274;2022-08-21T12:57:54;5.57;;;4.80;;
42118;SDS011;27783;42.782;23.274;2022-08-21T13:00:21;26.33;;;13.33;;
42118;SDS011;27783;42.782;23.274;2022-08-21T13:02:54;28.70;;;23.23;;
42118;SDS011;27783;42.782;23.274;2022-08-21T13:05:33;21.05;;;16.88;;
42118;SDS011;27783;42.782;23.274;2022-08-21T13:08:07;25.30;;;14.43;;
42118;SDS011;27783;42.782;23.274;2022-08-21T13:10:36;15.38;;;9.82;;
42118;SDS011;27783;42.782;23.274;2022-08-21T13:13:05;12.30;;;7.38;;
42118;SDS011;27783;42.782;23.274;2022-08-21T13:15:47;13.38;;;7.25;;
42118;SDS011;27783;42.782;23.274;2022-08-21T13:18:23;9.30;;;6.35;;
42118;SDS011;27783;42.782;23.274;2022-08-21T13:20:51;7.68;;;5.63;;
42118;SDS011;27783;42.782;23.274;2022-08-21T13:25:55;5.50;;;5.00;;
42118;SDS011;27783;42.782;23.274;2022-08-21T13:30:49;6.10;;;5.20;;
42118;SDS011;27783;42.782;23.274;2022-08-21T13:33:19;10.20;;;4.93;;
42118;SDS011;27783;42.782;23.274;2022-08-21T13:38:33;6.53;;;5.43;;
42118;SDS011;27783;42.782;23.274;2022-08-21T13:41:06;8.43;;;5.50;;
42118;SDS011;27783;42.782;23.274;2022-08-21T13:43:58;7.80;;;4.55;;
42118;SDS011;27783;42.782;23.274;2022-08-21T13:46:31;6.80;;;5.03;;
42118;SDS011;27783;42.782;23.274;2022-08-21T13:49:03;5.82;;;5.32;;
42118;SDS011;27783;42.782;23.274;2022-08-21T13:51:33;5.82;;;4.90;;
42118;SDS011;27783;42.782;23.274;2022-08-21T13:54:00;6.15;;;5.65;;
42118;SDS011;27783;42.782;23.274;2022-08-21T13:58:52;6.13;;;5.53;;
42118;SDS011;27783;42.782;23.274;2022-08-21T14:01:28;7.28;;;5.00;;
42118;SDS011;27783;42.782;23.274;2022-08-21T14:03:57;7.38;;;5.32;;
42118;SDS011;27783;42.782;23.274;2022-08-21T14:06:52;5.90;;;5.38;;
42118;SDS011;27783;42.782;23.274;2022-08-21T14:09:30;5.60;;;5.10;;
42118;SDS011;27783;42.782;23.274;2022-08-21T14:12:13;5.53;;;4.53;;
42118;SDS011;27783;42.782;23.274;2022-08-21T14:14:45;5.57;;;5.07;;
42118;SDS011;27783;42.782;23.274;2022-08-21T14:17:39;4.88;;;4.45;;
42118;SDS011;27783;42.782;23.274;2022-08-21T14:20:06;6.38;;;4.97;;
42118;SDS011;27783;42.782;23.274;2022-08-21T14:22:46;5.82;;;5.30;;
42118;SDS011;27783;42.782;23.274;2022-08-21T14:27:54;4.95;;;4.55;;
42118;SDS011;27783;42.782;23.274;2022-08-21T14:30:42;5.85;;;5.35;;
42118;SDS011;27783;42.782;23.274;2022-08-21T14:33:12;5.28;;;4.78;;
42118;SDS011;27783;42.782;23.274;2022-08-21T14:35:44;8.38;;;5.15;;
42118;SDS011;27783;42.782;23.274;2022-08-21T14:38:18;5.57;;;4.60;;
42118;SDS011;27783;42.782;23.274;2022-08-21T14:40:47;9.05;;;5.60;;
42118;SDS011;27783;42.782;23.274;2022-08-21T14:43:18;6.93;;;4.82;;
42118;SDS011;27783;42.782;23.274;2022-08-21T14:45:47;5.60;;;4.43;;
42118;SDS011;27783;42.782;23.274;2022-08-21T14:48:21;7.17;;;4.93;;
42118;SDS011;27783;42.782;23.274;2022-08-21T14:50:47;6.72;;;5.30;;
42118;SDS011;27783;42.782;23.274;2022-08-21T14:53:14;6.80;;;4.93;;
42118;SDS011;27783;42.782;23.274;2022-08-21T14:55:41;7.45;;;5.47;;
42118;SDS011;27783;42.782;23.274;2022-08-21T14:58:25;11.55;;;5.60;;
42118;SDS011;27783;42.782;23.274;2022-08-21T15:00:52;7.03;;;4.80;;
42118;SDS011;27783;42.782;23.274;2022-08-21T15:03:20;12.60;;;5.60;;
42118;SDS011;27783;42.782;23.274;2022-08-21T15:05:48;5.65;;;4.50;;
42118;SDS011;27783;42.782;23.274;2022-08-21T15:08:15;7.07;;;5.63;;
42118;SDS011;27783;42.782;23.274;2022-08-21T15:10:41;13.05;;;5.85;;
42118;SDS011;27783;42.782;23.274;2022-08-21T15:13:07;12.95;;;5.70;;
42118;SDS011;27783;42.782;23.274;2022-08-21T15:15:34;11.48;;;5.28;;
42118;SDS011;27783;42.782;23.274;2022-08-21T15:18:04;8.90;;;4.57;;
42118;SDS011;27783;42.782;23.274;2022-08-21T15:20:29;5.70;;;5.10;;
42118;SDS011;27783;42.782;23.274;2022-08-21T15:22:55;9.77;;;6.35;;
42118;SDS011;27783;42.782;23.274;2022-08-21T15:25:20;10.25;;;4.65;;
42118;SDS011;27783;42.782;23.274;2022-08-21T15:27:46;14.68;;;4.82;;
42118;SDS011;27783;42.782;23.274;2022-08-21T15:30:11;7.70;;;4.32;;
42118;SDS011;27783;42.782;23.274;2022-08-21T15:32:37;5.40;;;4.82;;
42118;SDS011;27783;42.782;23.274;2022-08-21T15:35:04;6.70;;;4.75;;
42118;SDS011;27783;42.782;23.274;2022-08-21T15:37:30;5.10;;;4.07;;
42118;SDS011;27783;42.782;23.274;2022-08-21T15:39:55;8.38;;;4.90;;
42118;SDS011;27783;42.782;23.274;2022-08-21T15:42:21;5.75;;;5.15;;
42118;SDS011;27783;42.782;23.274;2022-08-21T15:44:47;6.25;;;5.13;;
42118;SDS011;27783;42.782;23.274;2022-08-21T15:47:14;5.82;;;5.10;;
42118;SDS011;27783;42.782;23.274;2022-08-21T15:49:42;5.50;;;5.00;;
42118;SDS011;27783;42.782;23.274;2022-08-21T15:52:10;6.70;;;5.28;;
42118;SDS011;27783;42.782;23.274;2022-08-21T15:54:39;6.25;;;5.22;;
42118;SDS011;27783;42.782;23.274;2022-08-21T15:57:04;6.38;;;4.97;;
42118;SDS011;27783;42.782;23.274;2022-08-21T15:59:31;8.15;;;5.45;;
42118;SDS011;27783;42.782;23.274;2022-08-21T16:02:02;9.10;;;5.25;;
42118;SDS011;27783;42.782;23.274;2022-08-21T16:04:29;8.15;;;6.05;;
42118;SDS011;27783;42.782;23.274;2022-08-21T16:06:55;5.32;;;4.82;;
42118;SDS011;27783;42.782;23.274;2022-08-21T16:09:21;5.35;;;4.85;;
42118;SDS011;27783;42.782;23.274;2022-08-21T16:11:47;5.72;;;5.22;;
42118;SDS011;27783;42.782;23.274;2022-08-21T16:14:14;6.68;;;5.43;;
42118;SDS011;27783;42.782;23.274;2022-08-21T16:16:40;6.80;;;5.37;;
42118;SDS011;27783;42.782;23.274;2022-08-21T16:19:07;7.80;;;4.93;;
42118;SDS011;27783;42.782;23.274;2022-08-21T16:21:33;7.13;;;5.45;;
42118;SDS011;27783;42.782;23.274;2022-08-21T16:23:59;11.38;;;6.03;;
42118;SDS011;27783;42.782;23.274;2022-08-21T16:26:24;11.05;;;6.35;;